createdAt,value
2018-09-27T00:02:17.098Z,3.80
2018-09-27T00:04:46.795Z,3.83
2018-09-27T00:07:15.910Z,3.12
2018-09-27T00:09:46.125Z,3.22
2018-09-27T00:12:15.439Z,3.77
2018-09-27T00:14:44.693Z,3.77
2018-09-27T00:17:13.844Z,3.85
2018-09-27T00:19:43.045Z,3.05
2018-09-27T00:22:12.192Z,3.30
2018-09-27T00:24:41.508Z,3.75
2018-09-27T00:27:10.592Z,3.92
2018-09-27T00:29:39.767Z,3.85
2018-09-27T00:32:08.926Z,3.98
2018-09-27T00:34:38.115Z,4.30
2018-09-27T00:37:07.257Z,3.90
2018-09-27T00:39:36.442Z,4.47
2018-09-27T00:42:05.747Z,4.60
2018-09-27T00:44:34.893Z,3.98
2018-09-27T00:47:03.962Z,3.63
2018-09-27T00:49:33.345Z,3.58
2018-09-27T00:52:02.951Z,3.85
2018-09-27T00:54:31.847Z,3.58
2018-09-27T00:57:00.683Z,4.60
2018-09-27T00:59:29.456Z,4.37
2018-09-27T01:01:58.895Z,4.77
2018-09-27T01:04:27.577Z,4.85
2018-09-27T01:06:57.856Z,4.73
2018-09-27T01:09:26.849Z,4.80
2018-09-27T01:11:55.953Z,5.93
2018-09-27T01:14:24.668Z,4.87
2018-09-27T01:16:53.498Z,5.05
2018-09-27T01:19:22.477Z,4.40
2018-09-27T01:21:51.895Z,4.75
2018-09-27T01:24:21.305Z,4.80
2018-09-27T01:26:50.326Z,5.10
2018-09-27T01:29:19.425Z,6.05
2018-09-27T01:31:48.765Z,5.53
2018-09-27T01:34:18.681Z,5.05
2018-09-27T01:36:47.530Z,5.10
2018-09-27T01:39:16.291Z,4.80
2018-09-27T01:41:45.080Z,4.50
2018-09-27T01:44:14.886Z,5.22
2018-09-27T01:46:45.820Z,6.03
2018-09-27T01:49:14.615Z,5.20
2018-09-27T01:51:44.030Z,5.33
2018-09-27T01:54:13.103Z,4.28
2018-09-27T01:56:42.440Z,4.37
2018-09-27T01:59:11.294Z,4.40
2018-09-27T02:01:40.176Z,4.28
2018-09-27T02:04:08.994Z,4.80
2018-09-27T02:06:40.705Z,4.60
2018-09-27T02:09:10.075Z,4.80
2018-09-27T02:11:39.116Z,4.55
2018-09-27T02:14:08.128Z,4.70
2018-09-27T02:16:37.137Z,4.23
2018-09-27T02:19:05.971Z,4.47
2018-09-27T02:21:38.920Z,4.37
2018-09-27T02:24:09.112Z,5.50
2018-09-27T02:26:38.688Z,5.10
2018-09-27T02:29:07.712Z,4.87
2018-09-27T02:31:37.333Z,4.47
2018-09-27T02:34:06.184Z,4.30
2018-09-27T02:36:34.971Z,4.37
2018-09-27T02:39:04.699Z,4.58
2018-09-27T02:41:33.458Z,4.20
2018-09-27T02:44:02.333Z,4.30
2018-09-27T02:46:31.288Z,4.43
2018-09-27T02:49:00.586Z,4.00
2018-09-27T02:51:29.322Z,3.83
2018-09-27T02:53:58.225Z,3.67
2018-09-27T02:56:27.259Z,4.50
2018-09-27T02:58:56.973Z,3.80
2018-09-27T03:01:25.758Z,3.50
2018-09-27T03:03:54.701Z,3.60
2018-09-27T03:06:23.545Z,4.37
2018-09-27T03:08:53.604Z,4.08
2018-09-27T03:11:23.340Z,4.33
2018-09-27T03:13:52.331Z,4.22
2018-09-27T03:16:21.784Z,4.30
2018-09-27T03:18:52.440Z,3.55
2018-09-27T03:21:22.663Z,4.40
2018-09-27T03:23:52.067Z,3.95
2018-09-27T03:26:20.922Z,4.00
2018-09-27T03:28:50.628Z,4.10
2018-09-27T03:31:20.145Z,4.10
2018-09-27T03:33:49.369Z,3.95
2018-09-27T03:36:18.097Z,4.20
2018-09-27T03:38:48.005Z,4.30
2018-09-27T03:41:17.448Z,4.03
2018-09-27T03:43:46.301Z,4.30
2018-09-27T03:46:16.933Z,4.30
2018-09-27T03:48:47.564Z,4.42
2018-09-27T03:51:17.585Z,4.00
2018-09-27T03:53:47.156Z,5.10
2018-09-27T03:56:16.111Z,5.37
2018-09-27T03:58:45.239Z,5.17
2018-09-27T04:01:14.743Z,5.50
2018-09-27T04:03:43.475Z,4.97
2018-09-27T04:06:13.529Z,5.70
2018-09-27T04:08:42.989Z,5.53
2018-09-27T04:11:13.591Z,5.00
2018-09-27T04:13:42.527Z,5.33
2018-09-27T04:16:11.325Z,5.10
2018-09-27T04:18:40.860Z,5.10
2018-09-27T04:21:10.811Z,5.58
2018-09-27T04:23:39.671Z,4.55
2018-09-27T04:26:10.496Z,5.20
2018-09-27T04:28:39.966Z,5.10
2018-09-27T04:31:10.728Z,5.55
2018-09-27T04:33:40.093Z,5.37
2018-09-27T04:36:10.107Z,5.42
2018-09-27T04:38:39.313Z,5.30
2018-09-27T04:41:08.234Z,5.00
2018-09-27T04:43:37.990Z,5.80
2018-09-27T04:46:06.777Z,4.85
2018-09-27T04:48:37.608Z,5.47
2018-09-27T04:51:07.107Z,4.55
2018-09-27T04:53:36.356Z,5.92
2018-09-27T04:56:06.321Z,4.70
2018-09-27T04:58:35.293Z,4.92
2018-09-27T05:01:04.913Z,4.93
2018-09-27T05:03:37.606Z,5.00
2018-09-27T05:06:07.295Z,5.07
2018-09-27T05:08:36.853Z,5.15
2018-09-27T05:11:05.719Z,5.10
2018-09-27T05:13:34.450Z,5.37
2018-09-27T05:16:03.261Z,5.20
2018-09-27T05:18:32.023Z,5.10
2018-09-27T05:21:02.393Z,4.60
2018-09-27T05:23:31.289Z,4.85
2018-09-27T05:26:01.076Z,5.20
2018-09-27T05:28:30.450Z,5.60
2018-09-27T05:30:59.970Z,5.08
2018-09-27T05:33:29.359Z,4.60
2018-09-27T05:35:58.380Z,4.70
2018-09-27T05:38:27.380Z,4.30
2018-09-27T05:40:57.399Z,4.47
2018-09-27T05:43:26.319Z,4.30
2018-09-27T05:45:57.479Z,5.40
2018-09-27T05:48:26.270Z,5.37
2018-09-27T05:50:56.536Z,5.00
2018-09-27T05:53:26.100Z,5.83
2018-09-27T05:55:55.501Z,4.80
2018-09-27T05:58:24.242Z,4.62
2018-09-27T06:00:53.112Z,5.00
2018-09-27T06:03:22.178Z,5.08
2018-09-27T06:05:50.951Z,5.27
2018-09-27T06:08:19.701Z,5.53
2018-09-27T06:10:49.669Z,5.05
2018-09-27T06:13:19.361Z,5.10
2018-09-27T06:15:48.306Z,4.72
2018-09-27T06:18:19.085Z,4.70
2018-09-27T06:20:48.687Z,5.10
2018-09-27T06:23:18.431Z,5.12
2018-09-27T06:25:48.608Z,4.75
2018-09-27T06:28:18.358Z,5.12
2018-09-27T06:30:47.804Z,4.42
2018-09-27T06:33:16.511Z,4.37
2018-09-27T06:35:45.601Z,4.90
2018-09-27T06:38:14.425Z,5.37
2018-09-27T06:40:43.855Z,6.78
2018-09-27T06:43:13.216Z,5.73
2018-09-27T06:45:42.254Z,6.43
2018-09-27T06:48:11.856Z,6.15
2018-09-27T06:53:20.013Z,6.30
2018-09-27T06:55:50.445Z,6.17
2018-09-27T06:58:19.952Z,6.08
2018-09-27T07:00:49.535Z,6.50
2018-09-27T07:03:18.664Z,6.80
2018-09-27T07:05:48.232Z,6.53
2018-09-27T07:08:17.150Z,6.45
2018-09-27T07:10:46.507Z,6.47
2018-09-27T07:13:16.081Z,6.65
2018-09-27T07:15:45.546Z,6.80
2018-09-27T07:18:14.517Z,6.70
2018-09-27T07:20:43.283Z,6.60
2018-09-27T07:23:12.025Z,7.22
2018-09-27T07:25:46.317Z,6.28
2018-09-27T07:28:15.066Z,6.22
2018-09-27T07:30:44.050Z,6.78
2018-09-27T07:33:13.020Z,6.92
2018-09-27T07:35:41.954Z,6.37
2018-09-27T07:38:10.896Z,6.53
2018-09-27T07:40:40.657Z,7.00
2018-09-27T07:43:09.573Z,7.80
2018-09-27T07:45:38.442Z,7.12
2018-09-27T07:48:07.418Z,7.25
2018-09-27T07:50:36.319Z,7.23
2018-09-27T07:53:05.220Z,7.72
2018-09-27T07:55:34.009Z,7.17
2018-09-27T07:58:03.393Z,7.33
2018-09-27T08:00:32.190Z,6.85
2018-09-27T08:03:01.268Z,6.80
2018-09-27T08:05:31.403Z,5.83
2018-09-27T08:08:00.316Z,6.10
2018-09-27T08:10:30.763Z,6.33
2018-09-27T08:12:59.920Z,5.27
2018-09-27T08:15:30.022Z,7.58
2018-09-27T08:17:58.817Z,7.33
2018-09-27T08:20:28.515Z,7.87
2018-09-27T08:22:57.317Z,7.42
2018-09-27T08:25:26.907Z,5.60
2018-09-27T08:27:56.373Z,8.47
2018-09-27T08:30:25.989Z,7.80
2018-09-27T08:32:54.949Z,8.00
2018-09-27T08:35:23.694Z,8.38
2018-09-27T08:37:53.404Z,6.20
2018-09-27T08:40:22.903Z,7.90
2018-09-27T08:42:52.345Z,7.03
2018-09-27T08:45:21.504Z,7.57
2018-09-27T08:47:50.535Z,7.17
2018-09-27T08:50:19.513Z,6.93
2018-09-27T08:52:48.582Z,7.23
2018-09-27T08:55:18.068Z,6.87
2018-09-27T08:57:47.164Z,7.13
2018-09-27T09:00:16.268Z,7.47
2018-09-27T09:02:45.230Z,9.05
2018-09-27T09:05:14.250Z,7.87
2018-09-27T09:07:44.308Z,7.53
2018-09-27T09:10:13.931Z,6.67
2018-09-27T09:12:45.109Z,7.93
2018-09-27T09:15:14.048Z,9.15
2018-09-27T09:17:44.107Z,10.13
2018-09-27T09:20:13.294Z,7.70
2018-09-27T09:22:42.912Z,7.43
2018-09-27T09:25:12.813Z,9.43
2018-09-27T09:27:42.727Z,9.68
2018-09-27T09:30:11.711Z,9.45
2018-09-27T09:32:40.633Z,10.15
2018-09-27T09:35:10.239Z,10.00
2018-09-27T09:37:39.369Z,10.43
2018-09-27T09:40:09.406Z,10.03
2018-09-27T09:42:38.392Z,10.10
2018-09-27T09:45:07.495Z,10.38
2018-09-27T09:47:36.778Z,9.90
2018-09-27T09:50:05.976Z,10.28
2018-09-27T09:52:35.052Z,10.40
2018-09-27T09:55:04.383Z,10.55
2018-09-27T09:57:33.573Z,10.67
2018-09-27T10:00:02.618Z,10.07
2018-09-27T10:02:31.562Z,8.37
2018-09-27T10:05:00.398Z,7.43
2018-09-27T10:07:29.471Z,9.53
2018-09-27T10:09:58.386Z,9.90
2018-09-27T10:12:27.764Z,9.70
2018-09-27T10:14:57.443Z,9.78
2018-09-27T10:17:26.385Z,10.30
2018-09-27T10:19:56.383Z,9.80
2018-09-27T10:22:25.489Z,9.38
2018-09-27T10:24:54.472Z,9.45
2018-09-27T10:27:23.378Z,9.30
2018-09-27T10:29:53.213Z,10.30
2018-09-27T10:32:22.727Z,8.60
2018-09-27T10:34:51.755Z,7.57
2018-09-27T10:37:21.017Z,8.20
2018-09-27T10:39:50.404Z,8.10
2018-09-27T10:42:20.386Z,8.30
2018-09-27T10:44:49.457Z,7.93
2018-09-27T10:47:18.677Z,6.73
2018-09-27T10:49:47.744Z,7.73
2018-09-27T10:52:16.824Z,7.37
2018-09-27T10:54:46.748Z,8.90
2018-09-27T10:57:17.076Z,8.45
2018-09-27T10:59:46.957Z,6.90
2018-09-27T11:02:17.145Z,8.40
2018-09-27T11:04:47.268Z,7.72
2018-09-27T11:07:16.545Z,7.10
2018-09-27T11:09:46.182Z,6.37
2018-09-27T11:12:15.245Z,5.90
2018-09-27T11:14:44.307Z,6.87
2018-09-27T11:17:14.194Z,5.90
2018-09-27T11:19:43.794Z,6.30
2018-09-27T11:22:13.186Z,6.67
2018-09-27T11:29:43.520Z,6.47
2018-09-27T11:32:18.848Z,6.00
2018-09-27T11:34:47.981Z,5.33
2018-09-27T11:37:16.911Z,5.63
2018-09-27T11:39:46.041Z,5.87
2018-09-27T11:42:14.962Z,5.07
2018-09-27T11:44:43.885Z,5.60
2018-09-27T11:47:13.280Z,6.47
2018-09-27T11:49:42.736Z,7.00
2018-09-27T11:52:11.821Z,6.10
2018-09-27T11:54:40.938Z,6.30
2018-09-27T11:57:09.980Z,5.87
2018-09-27T11:59:40.143Z,6.45
2018-09-27T12:02:09.254Z,5.90
2018-09-27T12:04:38.448Z,5.70
2018-09-27T12:07:07.442Z,5.17
2018-09-27T12:09:36.673Z,6.25
2018-09-27T12:12:06.503Z,5.83
2018-09-27T12:14:35.413Z,5.63
2018-09-27T12:17:04.465Z,5.13
2018-09-27T12:19:33.482Z,3.93
2018-09-27T12:22:02.727Z,3.83
2018-09-27T12:24:31.765Z,4.90
2018-09-27T12:27:00.962Z,5.20
2018-09-27T12:29:30.139Z,5.17
2018-09-27T12:31:59.271Z,4.78
2018-09-27T12:34:28.426Z,4.40
2018-09-27T12:36:58.162Z,4.27
2018-09-27T12:39:27.272Z,4.70
2018-09-27T12:41:56.599Z,4.87
2018-09-27T12:44:25.678Z,4.92
2018-09-27T12:46:56.278Z,4.65
2018-09-27T12:49:26.065Z,4.60
2018-09-27T12:51:55.857Z,4.23
2018-09-27T12:54:24.836Z,4.55
2018-09-27T12:56:54.867Z,4.50
2018-09-27T12:59:24.467Z,4.37
2018-09-27T13:01:53.854Z,4.23
2018-09-27T13:04:22.851Z,4.50
2018-09-27T13:06:51.897Z,4.35
2018-09-27T13:09:22.063Z,4.30
2018-09-27T13:11:51.276Z,4.47
2018-09-27T13:14:21.306Z,4.47
2018-09-27T13:16:50.368Z,3.80
2018-09-27T13:19:19.580Z,3.80
2018-09-27T13:21:49.204Z,4.40
2018-09-27T13:24:18.246Z,3.73
2018-09-27T13:26:47.761Z,4.33
2018-09-27T13:29:16.833Z,4.25
2018-09-27T13:31:45.916Z,3.43
2018-09-27T13:34:15.031Z,3.27
2018-09-27T13:36:44.028Z,3.13
2018-09-27T13:39:13.291Z,2.80
2018-09-27T13:41:42.256Z,3.63
2018-09-27T13:44:11.377Z,3.03
2018-09-27T13:46:40.549Z,2.90
2018-09-27T13:49:10.639Z,3.30
2018-09-27T13:51:40.444Z,3.70
2018-09-27T13:54:10.501Z,3.17
2018-09-27T13:56:39.885Z,4.20
2018-09-27T13:59:09.226Z,4.15
2018-09-27T14:01:38.924Z,3.30
2018-09-27T14:04:08.199Z,3.77
2018-09-27T14:06:38.063Z,4.43
2018-09-27T14:09:08.897Z,3.77
2018-09-27T14:11:38.789Z,3.70
2018-09-27T14:14:07.908Z,3.77
2018-09-27T14:16:37.632Z,4.50
2018-09-27T14:19:06.819Z,4.00
2018-09-27T14:21:35.892Z,3.80
2018-09-27T14:24:05.429Z,3.83
2018-09-27T14:26:34.641Z,3.57
2018-09-27T14:29:04.025Z,3.03
2018-09-27T14:31:33.136Z,3.37
2018-09-27T14:38:58.924Z,3.53
2018-09-27T14:41:28.164Z,3.97
2018-09-27T14:43:57.276Z,4.35
2018-09-27T14:46:26.530Z,4.07
2018-09-27T14:48:55.777Z,4.00
2018-09-27T14:51:24.900Z,3.80
2018-09-27T14:53:53.891Z,3.30
2018-09-27T14:56:23.008Z,3.67
2018-09-27T14:58:52.185Z,3.10
2018-09-27T15:01:21.337Z,3.30
2018-09-27T15:03:51.089Z,3.27
2018-09-27T15:06:20.890Z,3.40
2018-09-27T15:08:50.237Z,3.07
2018-09-27T15:11:19.400Z,3.07
2018-09-27T15:13:48.453Z,3.17
2018-09-27T15:16:17.858Z,3.27
2018-09-27T15:18:47.177Z,3.57
2018-09-27T15:21:16.808Z,3.43
2018-09-27T15:23:45.834Z,3.43
2018-09-27T15:26:15.221Z,3.80
2018-09-27T15:28:44.409Z,3.98
2018-09-27T15:31:13.590Z,4.20
2018-09-27T15:33:42.716Z,4.93
2018-09-27T15:36:11.940Z,4.80
2018-09-27T15:38:41.206Z,5.15
2018-09-27T15:41:10.777Z,5.23
2018-09-27T15:43:40.039Z,4.80
2018-09-27T15:46:09.207Z,4.70
2018-09-27T15:48:38.328Z,4.97
2018-09-27T15:51:07.590Z,4.57
2018-09-27T16:23:18.473Z,3.57
2018-09-27T16:25:47.506Z,4.40
2018-09-27T16:28:16.786Z,3.85
2018-09-27T16:30:46.022Z,3.67
2018-09-27T16:33:15.161Z,3.20
2018-09-27T16:35:44.440Z,3.97
2018-09-27T16:38:13.922Z,3.70
2018-09-27T16:40:42.918Z,3.73
2018-09-27T16:43:11.896Z,3.40
2018-09-27T16:45:41.465Z,3.27
2018-09-27T16:48:10.648Z,3.50
2018-09-27T16:50:39.975Z,3.60
2018-09-27T16:53:09.149Z,3.23
2018-09-27T16:55:38.604Z,3.30
2018-09-27T16:58:08.509Z,3.30
2018-09-27T17:00:37.976Z,3.40
2018-09-27T17:03:07.652Z,2.80
2018-09-27T17:05:36.640Z,2.30
2018-09-27T17:08:05.777Z,2.53
2018-09-27T17:10:34.963Z,2.20
2018-09-27T17:13:04.671Z,2.33
2018-09-27T17:15:33.732Z,2.47
2018-09-27T17:18:03.651Z,2.17
2018-09-27T17:20:32.793Z,3.27
2018-09-27T17:23:01.952Z,2.53
2018-09-27T17:25:31.750Z,2.43
2018-09-27T17:28:00.933Z,2.67
2018-09-27T17:30:30.212Z,2.97
2018-09-27T17:32:59.325Z,2.73
2018-09-27T17:35:29.265Z,2.43
2018-09-27T17:37:58.432Z,2.50
2018-09-27T17:40:27.571Z,2.60
2018-09-27T17:42:57.634Z,3.00
2018-09-27T17:45:27.300Z,3.10
2018-09-27T17:47:56.493Z,3.00
2018-09-27T17:50:25.588Z,2.92
2018-09-27T17:52:54.735Z,3.20
2018-09-27T17:55:23.942Z,3.12
2018-09-27T17:57:53.040Z,3.50
2018-09-27T18:00:22.249Z,3.58
2018-09-27T18:02:52.619Z,3.27
2018-09-27T18:05:21.799Z,3.10
2018-09-27T18:07:51.100Z,3.57
2018-09-27T18:10:20.931Z,3.65
2018-09-27T18:12:50.022Z,4.17
2018-09-27T18:15:19.178Z,3.67
2018-09-27T18:17:48.278Z,3.92
2018-09-27T18:20:17.771Z,3.73
2018-09-27T18:22:47.984Z,3.00
2018-09-27T18:25:17.905Z,3.80
2018-09-27T18:27:47.099Z,3.50
2018-09-27T18:30:16.290Z,3.80
2018-09-27T18:32:45.381Z,5.10
2018-09-27T18:35:14.584Z,4.47
2018-09-27T18:37:43.805Z,4.37
2018-09-27T18:40:13.737Z,4.35
2018-09-27T18:42:43.206Z,4.27
2018-09-27T18:45:12.499Z,4.10
2018-09-27T18:47:42.350Z,4.20
2018-09-27T18:50:11.890Z,4.22
2018-09-27T18:52:41.224Z,4.00
2018-09-27T18:55:10.428Z,3.87
2018-09-27T18:57:39.844Z,3.62
2018-09-27T19:00:42.101Z,4.10
2018-09-27T19:03:11.209Z,3.90
2018-09-27T19:05:40.526Z,4.00
2018-09-27T19:08:10.989Z,5.00
2018-09-27T19:10:40.246Z,7.47
2018-09-27T19:13:09.348Z,6.70
2018-09-27T19:15:38.603Z,6.17
2018-09-27T19:18:07.859Z,6.62
2018-09-27T19:20:37.126Z,5.58
2018-09-27T19:23:07.608Z,5.67
2018-09-27T19:25:36.846Z,5.17
2018-09-27T19:28:06.226Z,5.60
2018-09-27T19:30:35.432Z,5.30
2018-09-27T19:33:05.429Z,5.05
2018-09-27T19:35:35.464Z,5.40
2018-09-27T19:38:04.496Z,5.20
2018-09-27T19:40:33.646Z,4.57
2018-09-27T19:43:02.723Z,5.22
2018-09-27T19:45:31.980Z,5.30
2018-09-27T19:48:01.132Z,6.47
2018-09-27T19:50:30.801Z,7.13
2018-09-27T19:52:59.905Z,7.43
2018-09-27T19:55:29.097Z,6.95
2018-09-27T19:57:58.409Z,6.30
2018-09-27T20:00:27.615Z,5.42
2018-09-27T20:02:56.673Z,5.70
2018-09-27T20:05:25.867Z,6.70
2018-09-27T20:07:55.336Z,5.70
2018-09-27T20:10:24.525Z,5.55
2018-09-27T20:12:53.746Z,5.15
2018-09-27T20:15:23.081Z,4.70
2018-09-27T20:17:52.130Z,4.43
2018-09-27T20:20:21.267Z,4.73
2018-09-27T20:22:50.424Z,5.13
2018-09-27T20:25:19.433Z,4.63
2018-09-27T20:27:48.548Z,5.07
2018-09-27T20:30:17.747Z,4.20
2018-09-27T20:32:46.680Z,4.07
2018-09-27T20:35:15.829Z,3.90
2018-09-27T20:37:44.981Z,4.37
2018-09-27T20:40:13.938Z,4.90
2018-09-27T20:42:44.190Z,5.00
2018-09-27T20:45:13.521Z,5.22
2018-09-27T20:47:42.741Z,4.78
2018-09-27T20:50:14.402Z,5.40
2018-09-27T20:52:43.482Z,4.97
2018-09-27T20:55:12.511Z,4.47
2018-09-27T20:57:41.673Z,3.80
2018-09-27T21:00:11.688Z,4.53
2018-09-27T21:02:40.824Z,4.87
2018-09-27T21:05:09.980Z,5.65
2018-09-27T21:07:38.928Z,8.03
2018-09-27T21:10:08.147Z,8.10
2018-09-27T21:12:37.345Z,8.07
2018-09-27T21:15:07.079Z,8.58
2018-09-27T21:17:37.055Z,8.00
2018-09-27T21:20:06.319Z,7.22
2018-09-27T21:22:35.264Z,6.90
2018-09-27T21:25:08.384Z,6.53
2018-09-27T21:27:38.137Z,5.62
2018-09-27T21:30:07.327Z,5.35
2018-09-27T21:32:36.444Z,5.33
2018-09-27T21:35:06.234Z,5.07
2018-09-27T21:37:35.415Z,5.53
2018-09-27T21:40:04.690Z,5.25
2018-09-27T21:42:33.799Z,4.87
2018-09-27T21:45:03.742Z,4.33
2018-09-27T21:47:32.753Z,5.03
2018-09-27T21:50:01.931Z,5.20
2018-09-27T21:52:31.135Z,5.37
2018-09-27T21:55:00.422Z,5.58
2018-09-27T21:57:29.385Z,6.42
2018-09-27T21:59:58.561Z,5.97
2018-09-27T22:02:27.537Z,5.45
2018-09-27T22:04:56.748Z,5.70
2018-09-27T22:07:26.671Z,4.70
2018-09-27T22:09:57.129Z,4.43
2018-09-27T22:12:27.199Z,4.87
2018-09-27T22:14:56.312Z,5.42
2018-09-27T22:17:25.420Z,5.37
2018-09-27T22:19:56.290Z,5.25
2018-09-27T22:22:26.285Z,5.90
2018-09-27T22:24:55.424Z,6.08
2018-09-27T22:27:26.075Z,6.05
2018-09-27T22:29:55.112Z,6.00
2018-09-27T22:32:24.321Z,5.78
2018-09-27T22:34:53.506Z,6.75
2018-09-27T22:37:22.658Z,7.55
2018-09-27T22:39:51.785Z,6.75
2018-09-27T22:42:20.991Z,7.50
2018-09-27T22:44:50.114Z,8.13
2018-09-27T22:47:19.738Z,8.08
2018-09-27T22:49:49.522Z,7.83
2018-09-27T22:52:18.766Z,8.23
2018-09-27T22:54:47.796Z,8.93
2018-09-27T22:57:16.901Z,9.00
2018-09-27T22:59:46.841Z,8.33
2018-09-27T23:02:15.795Z,9.20
2018-09-27T23:04:44.839Z,8.55
2018-09-27T23:07:14.018Z,10.13
2018-09-27T23:09:43.128Z,9.30
2018-09-27T23:12:12.312Z,10.70
2018-09-27T23:14:41.634Z,10.32
2018-09-27T23:17:10.942Z,8.40
2018-09-27T23:19:40.240Z,8.38
2018-09-27T23:22:09.525Z,8.35
2018-09-27T23:24:38.746Z,7.80
2018-09-27T23:27:07.804Z,7.83
2018-09-27T23:29:37.538Z,8.10
2018-09-27T23:32:06.766Z,8.70
2018-09-27T23:34:35.989Z,10.08
2018-09-27T23:37:05.067Z,10.70
2018-09-27T23:39:34.379Z,10.45
2018-09-27T23:42:03.385Z,10.58
2018-09-27T23:44:32.378Z,10.00
2018-09-27T23:47:01.558Z,8.60
2018-09-27T23:49:30.683Z,8.17
2018-09-27T23:51:59.793Z,12.07
2018-09-27T23:54:28.694Z,12.40
2018-09-27T23:56:57.963Z,12.20
2018-09-27T23:59:27.146Z,11.63
